Terminal Aerodrome Forecast
Issued by NWS

Home | Current Version | Previous Version | Text Only | Print | Product List | Glossary On
Versions: 1 2 3 4 5 6 7 8 9 10 11 12 13 14 15
000
FTUS41 KAKQ 281150 AAA
TAFPHF
TAF AMD
KPHF 281150Z 2812/2912 21006KT P6SM VCSH SCT060 BKN100
     FM281800 21009KT 6SM -SHRA BKN080
     FM282200 24008KT P6SM VCSH BKN100
     FM290000 28004KT P6SM BKN100
     FM290800 36007KT P6SM BKN015 BKN035=

USA.gov is the U.S. government's official web portal to all federal, state and local government web resources and services.